sensor_id;sensor_type;location;lat;lon;timestamp;temperature;humidity
66328;DHT22;53133;52.862;6.602;2023-03-16T00:00:38;5.50;92.60
66328;DHT22;53133;52.862;6.602;2023-03-16T00:03:04;5.50;92.60
66328;DHT22;53133;52.862;6.602;2023-03-16T00:05:30;5.50;92.70
66328;DHT22;53133;52.862;6.602;2023-03-16T00:07:56;5.50;92.50
66328;DHT22;53133;52.862;6.602;2023-03-16T00:10:22;5.50;93.00
66328;DHT22;53133;52.862;6.602;2023-03-16T00:12:52;5.50;93.50
66328;DHT22;53133;52.862;6.602;2023-03-16T00:15:18;5.50;93.00
66328;DHT22;53133;52.862;6.602;2023-03-16T00:17:44;5.50;93.90
66328;DHT22;53133;52.862;6.602;2023-03-16T00:20:16;5.50;94.10
66328;DHT22;53133;52.862;6.602;2023-03-16T00:22:43;5.50;93.90
66328;DHT22;53133;52.862;6.602;2023-03-16T00:25:10;5.50;94.00
66328;DHT22;53133;52.862;6.602;2023-03-16T00:27:36;5.50;93.40
66328;DHT22;53133;52.862;6.602;2023-03-16T00:30:03;5.50;93.00
66328;DHT22;53133;52.862;6.602;2023-03-16T00:32:32;5.50;92.50
66328;DHT22;53133;52.862;6.602;2023-03-16T00:34:58;5.50;92.60
66328;DHT22;53133;52.862;6.602;2023-03-16T00:37:25;5.50;93.00
66328;DHT22;53133;52.862;6.602;2023-03-16T00:39:52;5.50;93.00
66328;DHT22;53133;52.862;6.602;2023-03-16T00:42:21;5.50;92.90
66328;DHT22;53133;52.862;6.602;2023-03-16T00:44:52;5.50;93.20
66328;DHT22;53133;52.862;6.602;2023-03-16T00:47:26;5.50;93.30
66328;DHT22;53133;52.862;6.602;2023-03-16T00:49:53;5.50;93.00
66328;DHT22;53133;52.862;6.602;2023-03-16T00:52:20;5.50;93.80
66328;DHT22;53133;52.862;6.602;2023-03-16T00:54:47;5.50;93.90
66328;DHT22;53133;52.862;6.602;2023-03-16T00:57:15;5.50;94.40
66328;DHT22;53133;52.862;6.602;2023-03-16T00:59:44;5.50;94.10
66328;DHT22;53133;52.862;6.602;2023-03-16T01:02:10;5.40;93.50
66328;DHT22;53133;52.862;6.602;2023-03-16T01:04:37;5.40;93.40
66328;DHT22;53133;52.862;6.602;2023-03-16T01:07:05;5.50;94.10
66328;DHT22;53133;52.862;6.602;2023-03-16T01:09:32;5.40;93.50
66328;DHT22;53133;52.862;6.602;2023-03-16T01:12:06;5.40;93.40
66328;DHT22;53133;52.862;6.602;2023-03-16T01:14:33;5.40;94.00
66328;DHT22;53133;52.862;6.602;2023-03-16T01:17:03;5.40;93.60
66328;DHT22;53133;52.862;6.602;2023-03-16T01:19:30;5.40;94.20
66328;DHT22;53133;52.862;6.602;2023-03-16T01:22:03;5.30;94.30
66328;DHT22;53133;52.862;6.602;2023-03-16T01:24:29;5.30;94.10
66328;DHT22;53133;52.862;6.602;2023-03-16T01:26:55;5.30;94.30
66328;DHT22;53133;52.862;6.602;2023-03-16T01:29:21;5.30;94.40
66328;DHT22;53133;52.862;6.602;2023-03-16T01:31:46;5.30;94.30
66328;DHT22;53133;52.862;6.602;2023-03-16T01:34:14;5.30;94.20
66328;DHT22;53133;52.862;6.602;2023-03-16T01:36:43;5.30;94.50
66328;DHT22;53133;52.862;6.602;2023-03-16T01:39:13;5.30;95.50
66328;DHT22;53133;52.862;6.602;2023-03-16T01:41:40;5.20;95.30
66328;DHT22;53133;52.862;6.602;2023-03-16T01:44:14;5.20;95.30
66328;DHT22;53133;52.862;6.602;2023-03-16T01:46:40;5.20;95.40
66328;DHT22;53133;52.862;6.602;2023-03-16T01:52:02;5.10;94.90
66328;DHT22;53133;52.862;6.602;2023-03-16T01:54:34;5.10;96.20
66328;DHT22;53133;52.862;6.602;2023-03-16T01:57:17;5.10;96.00
66328;DHT22;53133;52.862;6.602;2023-03-16T02:00:06;5.10;96.40
66328;DHT22;53133;52.862;6.602;2023-03-16T02:02:36;5.10;96.50
66328;DHT22;53133;52.862;6.602;2023-03-16T02:05:04;5.10;96.50
66328;DHT22;53133;52.862;6.602;2023-03-16T02:07:34;5.00;96.50
66328;DHT22;53133;52.862;6.602;2023-03-16T02:10:03;5.00;97.40
66328;DHT22;53133;52.862;6.602;2023-03-16T02:12:29;5.00;97.90
66328;DHT22;53133;52.862;6.602;2023-03-16T02:14:54;5.00;97.50
66328;DHT22;53133;52.862;6.602;2023-03-16T02:17:26;5.00;98.10
66328;DHT22;53133;52.862;6.602;2023-03-16T02:22:35;5.00;96.10
66328;DHT22;53133;52.862;6.602;2023-03-16T02:25:02;5.00;96.60
66328;DHT22;53133;52.862;6.602;2023-03-16T02:27:45;4.90;96.70
66328;DHT22;53133;52.862;6.602;2023-03-16T02:30:15;4.90;97.20
66328;DHT22;53133;52.862;6.602;2023-03-16T02:32:41;5.00;96.90
66328;DHT22;53133;52.862;6.602;2023-03-16T02:35:09;5.00;96.90
66328;DHT22;53133;52.862;6.602;2023-03-16T02:37:35;5.00;96.80
66328;DHT22;53133;52.862;6.602;2023-03-16T02:40:02;5.00;96.60
66328;DHT22;53133;52.862;6.602;2023-03-16T02:42:39;5.00;96.40
66328;DHT22;53133;52.862;6.602;2023-03-16T02:45:05;5.00;97.30
66328;DHT22;53133;52.862;6.602;2023-03-16T02:47:40;5.00;96.70
66328;DHT22;53133;52.862;6.602;2023-03-16T02:50:08;5.00;96.40
66328;DHT22;53133;52.862;6.602;2023-03-16T02:52:35;5.00;96.60
66328;DHT22;53133;52.862;6.602;2023-03-16T02:55:01;5.00;96.30
66328;DHT22;53133;52.862;6.602;2023-03-16T02:57:27;5.00;95.60
66328;DHT22;53133;52.862;6.602;2023-03-16T02:59:53;5.10;95.40
66328;DHT22;53133;52.862;6.602;2023-03-16T03:02:19;5.10;95.30
66328;DHT22;53133;52.862;6.602;2023-03-16T03:04:45;5.10;95.90
66328;DHT22;53133;52.862;6.602;2023-03-16T03:07:12;5.10;96.00
66328;DHT22;53133;52.862;6.602;2023-03-16T03:09:41;5.20;96.30
66328;DHT22;53133;52.862;6.602;2023-03-16T03:12:08;5.20;95.70
66328;DHT22;53133;52.862;6.602;2023-03-16T03:14:34;5.20;95.40
66328;DHT22;53133;52.862;6.602;2023-03-16T03:17:08;5.20;95.40
66328;DHT22;53133;52.862;6.602;2023-03-16T03:19:34;5.20;94.90
66328;DHT22;53133;52.862;6.602;2023-03-16T03:22:02;5.20;94.40
66328;DHT22;53133;52.862;6.602;2023-03-16T03:24:32;5.20;94.70
66328;DHT22;53133;52.862;6.602;2023-03-16T03:26:58;5.20;95.50
66328;DHT22;53133;52.862;6.602;2023-03-16T03:29:26;5.20;95.70
66328;DHT22;53133;52.862;6.602;2023-03-16T03:32:02;5.20;95.30
66328;DHT22;53133;52.862;6.602;2023-03-16T03:34:29;5.20;95.10
66328;DHT22;53133;52.862;6.602;2023-03-16T03:36:56;5.20;94.90
66328;DHT22;53133;52.862;6.602;2023-03-16T03:39:22;5.20;94.40
66328;DHT22;53133;52.862;6.602;2023-03-16T03:41:48;5.20;94.30
66328;DHT22;53133;52.862;6.602;2023-03-16T03:44:14;5.20;94.90
66328;DHT22;53133;52.862;6.602;2023-03-16T03:46:39;5.20;95.20
66328;DHT22;53133;52.862;6.602;2023-03-16T03:49:05;5.30;95.30
66328;DHT22;53133;52.862;6.602;2023-03-16T03:51:31;5.30;95.40
66328;DHT22;53133;52.862;6.602;2023-03-16T03:53:58;5.30;95.40
66328;DHT22;53133;52.862;6.602;2023-03-16T03:56:24;5.30;95.30
66328;DHT22;53133;52.862;6.602;2023-03-16T03:58:50;5.30;95.40
66328;DHT22;53133;52.862;6.602;2023-03-16T04:01:16;5.30;96.00
66328;DHT22;53133;52.862;6.602;2023-03-16T04:03:42;5.30;95.60
66328;DHT22;53133;52.862;6.602;2023-03-16T04:06:08;5.30;95.90
66328;DHT22;53133;52.862;6.602;2023-03-16T04:08:34;5.30;96.20
66328;DHT22;53133;52.862;6.602;2023-03-16T04:11:00;5.30;96.20
66328;DHT22;53133;52.862;6.602;2023-03-16T04:13:26;5.30;96.20
66328;DHT22;53133;52.862;6.602;2023-03-16T04:15:59;5.30;96.60
66328;DHT22;53133;52.862;6.602;2023-03-16T04:18:27;5.30;96.90
66328;DHT22;53133;52.862;6.602;2023-03-16T04:20:53;5.30;96.70
66328;DHT22;53133;52.862;6.602;2023-03-16T04:23:19;5.30;96.60
66328;DHT22;53133;52.862;6.602;2023-03-16T04:25:45;5.30;96.20
66328;DHT22;53133;52.862;6.602;2023-03-16T04:28:11;5.30;96.20
66328;DHT22;53133;52.862;6.602;2023-03-16T04:30:37;5.30;96.10
66328;DHT22;53133;52.862;6.602;2023-03-16T04:33:03;5.30;95.90
66328;DHT22;53133;52.862;6.602;2023-03-16T04:35:28;5.30;96.70
66328;DHT22;53133;52.862;6.602;2023-03-16T04:37:54;5.20;96.40
66328;DHT22;53133;52.862;6.602;2023-03-16T04:40:20;5.30;96.80
66328;DHT22;53133;52.862;6.602;2023-03-16T04:42:47;5.30;97.00
66328;DHT22;53133;52.862;6.602;2023-03-16T04:45:14;5.20;97.50
66328;DHT22;53133;52.862;6.602;2023-03-16T04:47:40;5.30;97.60
66328;DHT22;53133;52.862;6.602;2023-03-16T04:50:07;5.20;97.10
66328;DHT22;53133;52.862;6.602;2023-03-16T04:52:33;5.20;97.50
66328;DHT22;53133;52.862;6.602;2023-03-16T04:54:58;5.20;97.90
66328;DHT22;53133;52.862;6.602;2023-03-16T04:57:24;5.20;97.30
66328;DHT22;53133;52.862;6.602;2023-03-16T04:59:49;5.30;97.20
66328;DHT22;53133;52.862;6.602;2023-03-16T05:02:15;5.20;97.00
66328;DHT22;53133;52.862;6.602;2023-03-16T05:04:42;5.20;97.50
66328;DHT22;53133;52.862;6.602;2023-03-16T05:07:08;5.20;98.00
66328;DHT22;53133;52.862;6.602;2023-03-16T05:09:33;5.20;98.10
66328;DHT22;53133;52.862;6.602;2023-03-16T05:11:59;5.20;98.00
66328;DHT22;53133;52.862;6.602;2023-03-16T05:14:25;5.20;97.90
66328;DHT22;53133;52.862;6.602;2023-03-16T05:16:51;5.20;97.50
66328;DHT22;53133;52.862;6.602;2023-03-16T05:19:17;5.20;98.20
66328;DHT22;53133;52.862;6.602;2023-03-16T05:21:43;5.20;98.10
66328;DHT22;53133;52.862;6.602;2023-03-16T05:24:10;5.20;97.90
66328;DHT22;53133;52.862;6.602;2023-03-16T05:26:36;5.20;98.40
66328;DHT22;53133;52.862;6.602;2023-03-16T05:29:02;5.20;98.80
66328;DHT22;53133;52.862;6.602;2023-03-16T05:31:27;5.20;98.90
66328;DHT22;53133;52.862;6.602;2023-03-16T05:33:57;5.20;98.80
66328;DHT22;53133;52.862;6.602;2023-03-16T05:36:23;5.20;98.80
66328;DHT22;53133;52.862;6.602;2023-03-16T05:38:49;5.20;98.90
66328;DHT22;53133;52.862;6.602;2023-03-16T05:41:15;5.20;99.00
66328;DHT22;53133;52.862;6.602;2023-03-16T05:43:43;5.20;99.10
66328;DHT22;53133;52.862;6.602;2023-03-16T05:46:08;5.20;99.30
66328;DHT22;53133;52.862;6.602;2023-03-16T05:48:34;5.20;99.30
66328;DHT22;53133;52.862;6.602;2023-03-16T05:51:00;5.20;99.40
66328;DHT22;53133;52.862;6.602;2023-03-16T05:53:25;5.30;99.50
66328;DHT22;53133;52.862;6.602;2023-03-16T05:55:53;5.30;99.40
66328;DHT22;53133;52.862;6.602;2023-03-16T05:58:19;5.20;99.60
66328;DHT22;53133;52.862;6.602;2023-03-16T06:00:45;5.30;99.90
66328;DHT22;53133;52.862;6.602;2023-03-16T06:03:11;5.30;99.90
66328;DHT22;53133;52.862;6.602;2023-03-16T06:05:37;5.30;99.90
66328;DHT22;53133;52.862;6.602;2023-03-16T06:08:03;5.30;99.90
66328;DHT22;53133;52.862;6.602;2023-03-16T06:10:28;5.30;99.90
66328;DHT22;53133;52.862;6.602;2023-03-16T06:12:54;5.30;99.90
66328;DHT22;53133;52.862;6.602;2023-03-16T06:15:20;5.30;99.90
66328;DHT22;53133;52.862;6.602;2023-03-16T06:17:49;5.30;99.90
66328;DHT22;53133;52.862;6.602;2023-03-16T06:20:15;5.30;99.90
66328;DHT22;53133;52.862;6.602;2023-03-16T06:22:42;5.20;99.90
66328;DHT22;53133;52.862;6.602;2023-03-16T06:25:09;5.20;99.90
66328;DHT22;53133;52.862;6.602;2023-03-16T06:27:36;5.20;99.90
66328;DHT22;53133;52.862;6.602;2023-03-16T06:30:04;5.20;99.90
66328;DHT22;53133;52.862;6.602;2023-03-16T06:32:30;5.20;99.90
66328;DHT22;53133;52.862;6.602;2023-03-16T06:34:56;5.30;99.90
66328;DHT22;53133;52.862;6.602;2023-03-16T06:37:24;5.30;99.90
66328;DHT22;53133;52.862;6.602;2023-03-16T06:39:49;5.30;99.90
66328;DHT22;53133;52.862;6.602;2023-03-16T06:42:15;5.30;99.90
66328;DHT22;53133;52.862;6.602;2023-03-16T06:44:40;5.30;99.90
66328;DHT22;53133;52.862;6.602;2023-03-16T06:47:07;5.30;99.90
66328;DHT22;53133;52.862;6.602;2023-03-16T06:49:33;5.40;99.90
66328;DHT22;53133;52.862;6.602;2023-03-16T06:51:58;5.40;99.90
66328;DHT22;53133;52.862;6.602;2023-03-16T06:54:25;5.40;99.90
66328;DHT22;53133;52.862;6.602;2023-03-16T06:56:51;5.40;99.90
66328;DHT22;53133;52.862;6.602;2023-03-16T06:59:17;5.40;99.90
66328;DHT22;53133;52.862;6.602;2023-03-16T07:01:42;5.40;99.90
66328;DHT22;53133;52.862;6.602;2023-03-16T07:04:09;5.50;99.90
66328;DHT22;53133;52.862;6.602;2023-03-16T07:06:37;5.50;99.90
66328;DHT22;53133;52.862;6.602;2023-03-16T07:09:02;5.50;99.90
66328;DHT22;53133;52.862;6.602;2023-03-16T07:11:30;5.60;99.90
66328;DHT22;53133;52.862;6.602;2023-03-16T07:13:56;5.60;99.90
66328;DHT22;53133;52.862;6.602;2023-03-16T07:16:23;5.60;99.90
66328;DHT22;53133;52.862;6.602;2023-03-16T07:18:48;5.60;99.90
66328;DHT22;53133;52.862;6.602;2023-03-16T07:21:14;5.60;99.90
66328;DHT22;53133;52.862;6.602;2023-03-16T07:23:40;5.60;99.90
66328;DHT22;53133;52.862;6.602;2023-03-16T07:26:05;5.70;99.90
66328;DHT22;53133;52.862;6.602;2023-03-16T07:28:33;5.70;99.90
66328;DHT22;53133;52.862;6.602;2023-03-16T07:30:58;5.70;99.90
66328;DHT22;53133;52.862;6.602;2023-03-16T07:33:24;5.70;99.90
66328;DHT22;53133;52.862;6.602;2023-03-16T07:35:49;5.70;99.90
66328;DHT22;53133;52.862;6.602;2023-03-16T07:38:16;5.70;99.90
66328;DHT22;53133;52.862;6.602;2023-03-16T07:40:42;5.70;99.90
66328;DHT22;53133;52.862;6.602;2023-03-16T07:43:07;5.80;99.90
66328;DHT22;53133;52.862;6.602;2023-03-16T07:45:33;5.70;99.90
66328;DHT22;53133;52.862;6.602;2023-03-16T07:47:58;5.80;99.90
66328;DHT22;53133;52.862;6.602;2023-03-16T07:50:24;5.80;99.90
66328;DHT22;53133;52.862;6.602;2023-03-16T07:52:49;5.90;99.90
66328;DHT22;53133;52.862;6.602;2023-03-16T07:55:15;5.90;99.90
66328;DHT22;53133;52.862;6.602;2023-03-16T07:57:41;5.90;99.90
66328;DHT22;53133;52.862;6.602;2023-03-16T08:00:08;5.90;99.70
66328;DHT22;53133;52.862;6.602;2023-03-16T08:02:34;6.00;99.90
66328;DHT22;53133;52.862;6.602;2023-03-16T08:05:00;6.00;99.90
66328;DHT22;53133;52.862;6.602;2023-03-16T08:07:25;6.00;99.90
66328;DHT22;53133;52.862;6.602;2023-03-16T08:09:51;6.00;99.90
66328;DHT22;53133;52.862;6.602;2023-03-16T08:12:17;6.00;99.90
66328;DHT22;53133;52.862;6.602;2023-03-16T08:14:42;6.10;99.90
66328;DHT22;53133;52.862;6.602;2023-03-16T08:17:10;6.10;99.90
66328;DHT22;53133;52.862;6.602;2023-03-16T08:19:37;6.10;99.90
66328;DHT22;53133;52.862;6.602;2023-03-16T08:22:03;6.10;99.90
66328;DHT22;53133;52.862;6.602;2023-03-16T08:24:31;6.10;99.90
66328;DHT22;53133;52.862;6.602;2023-03-16T08:26:57;6.10;99.90
66328;DHT22;53133;52.862;6.602;2023-03-16T08:29:24;6.10;99.90
66328;DHT22;53133;52.862;6.602;2023-03-16T08:31:52;6.10;99.90
66328;DHT22;53133;52.862;6.602;2023-03-16T08:34:18;6.10;99.90
66328;DHT22;53133;52.862;6.602;2023-03-16T08:36:44;6.10;99.90
66328;DHT22;53133;52.862;6.602;2023-03-16T08:39:09;6.10;99.90
66328;DHT22;53133;52.862;6.602;2023-03-16T08:41:35;6.10;99.90
66328;DHT22;53133;52.862;6.602;2023-03-16T08:44:01;6.00;99.90
66328;DHT22;53133;52.862;6.602;2023-03-16T08:46:27;6.10;99.90
66328;DHT22;53133;52.862;6.602;2023-03-16T08:48:53;6.10;99.90
66328;DHT22;53133;52.862;6.602;2023-03-16T08:51:20;6.10;99.90
66328;DHT22;53133;52.862;6.602;2023-03-16T08:53:46;6.10;99.90
66328;DHT22;53133;52.862;6.602;2023-03-16T08:56:12;6.10;99.90
66328;DHT22;53133;52.862;6.602;2023-03-16T08:58:40;6.10;99.90
66328;DHT22;53133;52.862;6.602;2023-03-16T09:01:11;6.10;99.90
66328;DHT22;53133;52.862;6.602;2023-03-16T09:03:37;6.10;99.90
66328;DHT22;53133;52.862;6.602;2023-03-16T09:06:06;6.10;99.90
66328;DHT22;53133;52.862;6.602;2023-03-16T09:08:34;6.10;99.90
66328;DHT22;53133;52.862;6.602;2023-03-16T09:11:03;6.00;99.90
66328;DHT22;53133;52.862;6.602;2023-03-16T09:13:30;6.10;99.90
66328;DHT22;53133;52.862;6.602;2023-03-16T09:15:56;6.10;99.90
66328;DHT22;53133;52.862;6.602;2023-03-16T09:18:23;6.10;99.90
66328;DHT22;53133;52.862;6.602;2023-03-16T09:20:51;6.10;99.90
66328;DHT22;53133;52.862;6.602;2023-03-16T09:23:17;6.10;99.90
66328;DHT22;53133;52.862;6.602;2023-03-16T09:25:44;6.10;99.90
66328;DHT22;53133;52.862;6.602;2023-03-16T09:28:09;6.10;99.90
66328;DHT22;53133;52.862;6.602;2023-03-16T09:30:36;6.10;99.90
66328;DHT22;53133;52.862;6.602;2023-03-16T09:33:02;6.10;99.90
66328;DHT22;53133;52.862;6.602;2023-03-16T09:35:28;6.20;99.90
66328;DHT22;53133;52.862;6.602;2023-03-16T09:37:54;6.20;99.90
66328;DHT22;53133;52.862;6.602;2023-03-16T09:40:26;6.30;99.90
66328;DHT22;53133;52.862;6.602;2023-03-16T09:43:30;6.40;99.90
66328;DHT22;53133;52.862;6.602;2023-03-16T09:48:32;6.40;99.90
66328;DHT22;53133;52.862;6.602;2023-03-16T09:50:59;6.50;99.90
66328;DHT22;53133;52.862;6.602;2023-03-16T09:53:29;6.50;99.90
66328;DHT22;53133;52.862;6.602;2023-03-16T09:58:29;6.60;99.90
66328;DHT22;53133;52.862;6.602;2023-03-16T10:01:22;6.60;99.90
66328;DHT22;53133;52.862;6.602;2023-03-16T10:03:56;6.60;99.90
66328;DHT22;53133;52.862;6.602;2023-03-16T10:06:25;6.60;99.90
66328;DHT22;53133;52.862;6.602;2023-03-16T10:08:58;6.60;99.90
66328;DHT22;53133;52.862;6.602;2023-03-16T10:11:44;6.60;99.90
66328;DHT22;53133;52.862;6.602;2023-03-16T10:14:13;6.60;99.90
66328;DHT22;53133;52.862;6.602;2023-03-16T10:19:58;6.60;99.90
66328;DHT22;53133;52.862;6.602;2023-03-16T10:22:30;6.60;99.90
66328;DHT22;53133;52.862;6.602;2023-03-16T10:25:22;6.60;99.90
66328;DHT22;53133;52.862;6.602;2023-03-16T10:27:50;6.70;99.90
66328;DHT22;53133;52.862;6.602;2023-03-16T10:30:21;6.70;99.90
66328;DHT22;53133;52.862;6.602;2023-03-16T10:32:48;6.70;99.90
66328;DHT22;53133;52.862;6.602;2023-03-16T10:37:54;6.80;99.90
66328;DHT22;53133;52.862;6.602;2023-03-16T10:40:24;6.90;99.90
66328;DHT22;53133;52.862;6.602;2023-03-16T10:42:50;6.90;99.90
66328;DHT22;53133;52.862;6.602;2023-03-16T10:45:27;6.90;99.90
66328;DHT22;53133;52.862;6.602;2023-03-16T10:48:05;6.90;99.90
66328;DHT22;53133;52.862;6.602;2023-03-16T10:50:31;6.90;99.90
66328;DHT22;53133;52.862;6.602;2023-03-16T10:52:58;6.90;99.90
66328;DHT22;53133;52.862;6.602;2023-03-16T10:55:27;7.00;99.90
66328;DHT22;53133;52.862;6.602;2023-03-16T10:57:55;7.00;99.90
66328;DHT22;53133;52.862;6.602;2023-03-16T11:00:27;7.10;99.90
66328;DHT22;53133;52.862;6.602;2023-03-16T11:02:54;7.10;99.90
66328;DHT22;53133;52.862;6.602;2023-03-16T11:07:56;7.10;99.90
66328;DHT22;53133;52.862;6.602;2023-03-16T11:10:33;7.10;99.90
66328;DHT22;53133;52.862;6.602;2023-03-16T11:16:02;7.20;99.90
66328;DHT22;53133;52.862;6.602;2023-03-16T11:18:31;7.20;99.90
66328;DHT22;53133;52.862;6.602;2023-03-16T11:21:07;7.20;99.90
66328;DHT22;53133;52.862;6.602;2023-03-16T11:23:40;7.10;99.90
66328;DHT22;53133;52.862;6.602;2023-03-16T11:26:11;7.20;99.90
66328;DHT22;53133;52.862;6.602;2023-03-16T11:28:46;7.20;99.90
66328;DHT22;53133;52.862;6.602;2023-03-16T11:34:18;7.30;99.90
66328;DHT22;53133;52.862;6.602;2023-03-16T11:42:54;7.40;99.90
66328;DHT22;53133;52.862;6.602;2023-03-16T11:45:28;7.50;99.90
66328;DHT22;53133;52.862;6.602;2023-03-16T11:49:00;7.50;99.90
66328;DHT22;53133;52.862;6.602;2023-03-16T11:53:48;7.70;99.90
66328;DHT22;53133;52.862;6.602;2023-03-16T11:59:16;7.90;99.90
66328;DHT22;53133;52.862;6.602;2023-03-16T12:04:41;8.00;99.90
66328;DHT22;53133;52.862;6.602;2023-03-16T12:10:13;8.20;99.90
66328;DHT22;53133;52.862;6.602;2023-03-16T12:13:04;8.30;99.90
66328;DHT22;53133;52.862;6.602;2023-03-16T12:15:41;8.40;99.90
66328;DHT22;53133;52.862;6.602;2023-03-16T12:18:20;8.40;99.90
66328;DHT22;53133;52.862;6.602;2023-03-16T12:21:00;8.50;99.90
66328;DHT22;53133;52.862;6.602;2023-03-16T12:25:56;8.60;99.90
66328;DHT22;53133;52.862;6.602;2023-03-16T12:28:26;8.70;99.90
66328;DHT22;53133;52.862;6.602;2023-03-16T12:34:07;8.80;99.90
66328;DHT22;53133;52.862;6.602;2023-03-16T12:36:56;8.80;99.90
66328;DHT22;53133;52.862;6.602;2023-03-16T12:39:34;8.80;99.90
66328;DHT22;53133;52.862;6.602;2023-03-16T12:42:14;8.90;99.90
66328;DHT22;53133;52.862;6.602;2023-03-16T12:45:01;8.80;99.90
66328;DHT22;53133;52.862;6.602;2023-03-16T12:50:20;8.90;99.90
66328;DHT22;53133;52.862;6.602;2023-03-16T12:52:48;8.90;99.90
66328;DHT22;53133;52.862;6.602;2023-03-16T12:58:04;8.90;99.90
66328;DHT22;53133;52.862;6.602;2023-03-16T13:00:36;8.90;99.90
66328;DHT22;53133;52.862;6.602;2023-03-16T13:03:03;8.90;99.90
66328;DHT22;53133;52.862;6.602;2023-03-16T13:05:33;8.90;99.90
66328;DHT22;53133;52.862;6.602;2023-03-16T13:08:26;8.90;99.90
66328;DHT22;53133;52.862;6.602;2023-03-16T13:11:10;8.90;99.90
66328;DHT22;53133;52.862;6.602;2023-03-16T13:16:31;8.90;99.90
66328;DHT22;53133;52.862;6.602;2023-03-16T13:18:58;9.00;99.90
66328;DHT22;53133;52.862;6.602;2023-03-16T13:21:35;9.00;99.90
66328;DHT22;53133;52.862;6.602;2023-03-16T13:24:23;9.00;99.90
66328;DHT22;53133;52.862;6.602;2023-03-16T13:26:54;9.10;99.90
66328;DHT22;53133;52.862;6.602;2023-03-16T13:29:30;9.10;99.90
66328;DHT22;53133;52.862;6.602;2023-03-16T13:31:58;9.20;99.90
66328;DHT22;53133;52.862;6.602;2023-03-16T13:34:31;9.30;99.90
66328;DHT22;53133;52.862;6.602;2023-03-16T13:36:58;9.40;99.90
66328;DHT22;53133;52.862;6.602;2023-03-16T13:39:28;9.50;99.90
66328;DHT22;53133;52.862;6.602;2023-03-16T13:42:02;9.60;99.90
66328;DHT22;53133;52.862;6.602;2023-03-16T13:44:29;9.70;99.90
66328;DHT22;53133;52.862;6.602;2023-03-16T13:46:56;9.80;99.90
66328;DHT22;53133;52.862;6.602;2023-03-16T13:49:22;9.80;99.90
66328;DHT22;53133;52.862;6.602;2023-03-16T13:51:48;9.90;99.90
66328;DHT22;53133;52.862;6.602;2023-03-16T13:56:46;10.10;96.50
66328;DHT22;53133;52.862;6.602;2023-03-16T13:59:12;10.10;96.10
66328;DHT22;53133;52.862;6.602;2023-03-16T14:01:43;10.10;96.40
66328;DHT22;53133;52.862;6.602;2023-03-16T14:04:11;10.10;94.00
66328;DHT22;53133;52.862;6.602;2023-03-16T14:06:49;10.10;94.80
66328;DHT22;53133;52.862;6.602;2023-03-16T14:09:19;10.20;94.60
66328;DHT22;53133;52.862;6.602;2023-03-16T14:11:46;10.20;94.70
66328;DHT22;53133;52.862;6.602;2023-03-16T14:14:22;10.10;94.30
66328;DHT22;53133;52.862;6.602;2023-03-16T14:16:48;10.10;93.20
66328;DHT22;53133;52.862;6.602;2023-03-16T14:19:20;10.10;93.50
66328;DHT22;53133;52.862;6.602;2023-03-16T14:21:49;10.00;93.50
66328;DHT22;53133;52.862;6.602;2023-03-16T14:24:41;10.00;94.10
66328;DHT22;53133;52.862;6.602;2023-03-16T14:29:43;9.90;93.70
66328;DHT22;53133;52.862;6.602;2023-03-16T14:32:27;9.90;94.00
66328;DHT22;53133;52.862;6.602;2023-03-16T14:35:30;10.00;93.30
66328;DHT22;53133;52.862;6.602;2023-03-16T14:37:56;10.00;93.40
66328;DHT22;53133;52.862;6.602;2023-03-16T14:40:29;10.00;94.40
66328;DHT22;53133;52.862;6.602;2023-03-16T14:42:59;10.00;94.50
66328;DHT22;53133;52.862;6.602;2023-03-16T14:45:32;10.10;93.70
66328;DHT22;53133;52.862;6.602;2023-03-16T14:48:08;10.10;94.20
66328;DHT22;53133;52.862;6.602;2023-03-16T14:50:41;10.30;93.90
66328;DHT22;53133;52.862;6.602;2023-03-16T14:53:08;10.40;93.00
66328;DHT22;53133;52.862;6.602;2023-03-16T14:55:34;10.50;92.10
66328;DHT22;53133;52.862;6.602;2023-03-16T14:58:00;10.60;91.10
66328;DHT22;53133;52.862;6.602;2023-03-16T15:00:27;10.70;89.20
66328;DHT22;53133;52.862;6.602;2023-03-16T15:03:03;10.70;88.50
66328;DHT22;53133;52.862;6.602;2023-03-16T15:05:36;10.70;86.20
66328;DHT22;53133;52.862;6.602;2023-03-16T15:08:05;10.70;85.40
66328;DHT22;53133;52.862;6.602;2023-03-16T15:10:33;10.70;85.90
66328;DHT22;53133;52.862;6.602;2023-03-16T15:13:00;10.70;84.60
66328;DHT22;53133;52.862;6.602;2023-03-16T15:15:31;10.70;85.60
66328;DHT22;53133;52.862;6.602;2023-03-16T15:17:57;10.70;83.90
66328;DHT22;53133;52.862;6.602;2023-03-16T15:20:32;10.60;86.00
66328;DHT22;53133;52.862;6.602;2023-03-16T15:22:59;10.70;83.20
66328;DHT22;53133;52.862;6.602;2023-03-16T15:25:37;10.60;83.50
66328;DHT22;53133;52.862;6.602;2023-03-16T15:28:15;10.60;81.00
66328;DHT22;53133;52.862;6.602;2023-03-16T15:30:43;10.60;83.30
66328;DHT22;53133;52.862;6.602;2023-03-16T15:33:10;10.50;84.60
66328;DHT22;53133;52.862;6.602;2023-03-16T15:35:36;10.50;84.50
66328;DHT22;53133;52.862;6.602;2023-03-16T15:38:10;10.50;84.50
66328;DHT22;53133;52.862;6.602;2023-03-16T15:40:38;10.40;84.00
66328;DHT22;53133;52.862;6.602;2023-03-16T15:43:13;10.40;85.40
66328;DHT22;53133;52.862;6.602;2023-03-16T15:45:39;10.40;84.20
66328;DHT22;53133;52.862;6.602;2023-03-16T15:48:05;10.40;85.60
66328;DHT22;53133;52.862;6.602;2023-03-16T15:50:31;10.40;86.20
66328;DHT22;53133;52.862;6.602;2023-03-16T15:56:03;10.40;86.30
66328;DHT22;53133;52.862;6.602;2023-03-16T15:58:30;10.40;87.60
66328;DHT22;53133;52.862;6.602;2023-03-16T16:00:58;10.30;88.00
66328;DHT22;53133;52.862;6.602;2023-03-16T16:03:25;10.30;89.00
66328;DHT22;53133;52.862;6.602;2023-03-16T16:05:52;10.30;88.30
66328;DHT22;53133;52.862;6.602;2023-03-16T16:08:18;10.30;88.90
66328;DHT22;53133;52.862;6.602;2023-03-16T16:10:46;10.30;89.70
66328;DHT22;53133;52.862;6.602;2023-03-16T16:13:23;10.30;90.30
66328;DHT22;53133;52.862;6.602;2023-03-16T16:15:49;10.30;90.70
66328;DHT22;53133;52.862;6.602;2023-03-16T16:18:24;10.30;90.00
66328;DHT22;53133;52.862;6.602;2023-03-16T16:20:53;10.20;89.10
66328;DHT22;53133;52.862;6.602;2023-03-16T16:23:18;10.20;90.30
66328;DHT22;53133;52.862;6.602;2023-03-16T16:25:44;10.20;90.30
66328;DHT22;53133;52.862;6.602;2023-03-16T16:28:22;10.20;90.40
66328;DHT22;53133;52.862;6.602;2023-03-16T16:30:48;10.20;89.50
66328;DHT22;53133;52.862;6.602;2023-03-16T16:33:33;10.20;90.70
66328;DHT22;53133;52.862;6.602;2023-03-16T16:36:02;10.20;90.00
66328;DHT22;53133;52.862;6.602;2023-03-16T16:38:28;10.10;90.20
66328;DHT22;53133;52.862;6.602;2023-03-16T16:40:55;10.10;90.60
66328;DHT22;53133;52.862;6.602;2023-03-16T16:46:15;10.10;91.10
66328;DHT22;53133;52.862;6.602;2023-03-16T16:48:44;10.00;91.20
66328;DHT22;53133;52.862;6.602;2023-03-16T16:51:19;9.90;91.60
66328;DHT22;53133;52.862;6.602;2023-03-16T16:53:46;9.90;91.80
66328;DHT22;53133;52.862;6.602;2023-03-16T16:56:16;9.80;92.40
66328;DHT22;53133;52.862;6.602;2023-03-16T16:58:43;9.80;92.70
66328;DHT22;53133;52.862;6.602;2023-03-16T17:01:18;9.70;92.90